sensor_id;sensor_type;location;lat;lon;timestamp;P1;durP1;ratioP1;P2;durP2;ratioP2
48554;SDS011;34336;48.270;16.716;2022-10-16T00:01:31;40.03;;;30.27;;
48554;SDS011;34336;48.270;16.716;2022-10-16T00:03:58;37.63;;;28.27;;
48554;SDS011;34336;48.270;16.716;2022-10-16T00:06:27;36.45;;;27.88;;
48554;SDS011;34336;48.270;16.716;2022-10-16T00:08:54;32.92;;;26.52;;
48554;SDS011;34336;48.270;16.716;2022-10-16T00:11:25;33.38;;;26.98;;
48554;SDS011;34336;48.270;16.716;2022-10-16T00:14:00;34.00;;;26.83;;
48554;SDS011;34336;48.270;16.716;2022-10-16T00:16:28;31.92;;;25.83;;
48554;SDS011;34336;48.270;16.716;2022-10-16T00:18:55;33.72;;;27.13;;
48554;SDS011;34336;48.270;16.716;2022-10-16T00:21:23;38.53;;;28.58;;
48554;SDS011;34336;48.270;16.716;2022-10-16T00:23:53;41.05;;;30.10;;
48554;SDS011;34336;48.270;16.716;2022-10-16T00:26:31;34.80;;;28.40;;
48554;SDS011;34336;48.270;16.716;2022-10-16T00:28:59;39.88;;;28.20;;
48554;SDS011;34336;48.270;16.716;2022-10-16T00:31:26;41.88;;;31.02;;
48554;SDS011;34336;48.270;16.716;2022-10-16T00:33:54;42.42;;;31.45;;
48554;SDS011;34336;48.270;16.716;2022-10-16T00:36:21;40.75;;;28.88;;
48554;SDS011;34336;48.270;16.716;2022-10-16T00:38:50;41.95;;;31.05;;
48554;SDS011;34336;48.270;16.716;2022-10-16T00:41:20;40.38;;;30.08;;
48554;SDS011;34336;48.270;16.716;2022-10-16T00:43:49;42.67;;;30.95;;
48554;SDS011;34336;48.270;16.716;2022-10-16T00:46:19;69.30;;;28.92;;
48554;SDS011;34336;48.270;16.716;2022-10-16T00:48:59;30.52;;;24.98;;
48554;SDS011;34336;48.270;16.716;2022-10-16T00:51:33;30.93;;;24.93;;
48554;SDS011;34336;48.270;16.716;2022-10-16T00:54:04;30.27;;;24.33;;
48554;SDS011;34336;48.270;16.716;2022-10-16T00:56:35;32.00;;;24.90;;
48554;SDS011;34336;48.270;16.716;2022-10-16T00:59:03;34.72;;;27.33;;
48554;SDS011;34336;48.270;16.716;2022-10-16T01:01:37;35.65;;;27.10;;
48554;SDS011;34336;48.270;16.716;2022-10-16T01:04:04;29.60;;;24.23;;
48554;SDS011;34336;48.270;16.716;2022-10-16T01:06:36;28.77;;;22.80;;
48554;SDS011;34336;48.270;16.716;2022-10-16T01:09:21;24.67;;;22.02;;
48554;SDS011;34336;48.270;16.716;2022-10-16T01:12:01;73.10;;;28.80;;
48554;SDS011;34336;48.270;16.716;2022-10-16T01:15:17;33.63;;;26.50;;
48554;SDS011;34336;48.270;16.716;2022-10-16T01:17:51;30.40;;;23.90;;
48554;SDS011;34336;48.270;16.716;2022-10-16T01:25:39;37.13;;;26.92;;
48554;SDS011;34336;48.270;16.716;2022-10-16T01:28:16;36.53;;;28.05;;
48554;SDS011;34336;48.270;16.716;2022-10-16T01:30:45;32.90;;;26.63;;
48554;SDS011;34336;48.270;16.716;2022-10-16T01:33:20;33.75;;;27.13;;
48554;SDS011;34336;48.270;16.716;2022-10-16T01:35:52;39.03;;;28.88;;
48554;SDS011;34336;48.270;16.716;2022-10-16T01:38:42;37.47;;;28.02;;
48554;SDS011;34336;48.270;16.716;2022-10-16T01:41:32;33.30;;;26.77;;
48554;SDS011;34336;48.270;16.716;2022-10-16T01:44:05;32.30;;;26.48;;
48554;SDS011;34336;48.270;16.716;2022-10-16T01:46:43;37.63;;;29.15;;
48554;SDS011;34336;48.270;16.716;2022-10-16T01:49:11;40.58;;;30.55;;
48554;SDS011;34336;48.270;16.716;2022-10-16T01:51:39;39.35;;;29.77;;
48554;SDS011;34336;48.270;16.716;2022-10-16T01:54:09;35.22;;;27.33;;
48554;SDS011;34336;48.270;16.716;2022-10-16T01:56:40;37.08;;;28.77;;
48554;SDS011;34336;48.270;16.716;2022-10-16T01:59:13;33.60;;;26.67;;
48554;SDS011;34336;48.270;16.716;2022-10-16T02:01:45;37.10;;;28.75;;
48554;SDS011;34336;48.270;16.716;2022-10-16T02:04:17;36.75;;;28.55;;
48554;SDS011;34336;48.270;16.716;2022-10-16T02:06:47;38.25;;;28.45;;
48554;SDS011;34336;48.270;16.716;2022-10-16T02:09:14;44.90;;;30.30;;
48554;SDS011;34336;48.270;16.716;2022-10-16T02:11:43;46.63;;;32.10;;
48554;SDS011;34336;48.270;16.716;2022-10-16T02:14:10;43.80;;;30.88;;
48554;SDS011;34336;48.270;16.716;2022-10-16T02:16:38;47.80;;;31.45;;
48554;SDS011;34336;48.270;16.716;2022-10-16T02:19:10;48.15;;;31.40;;
48554;SDS011;34336;48.270;16.716;2022-10-16T02:21:49;39.97;;;29.13;;
48554;SDS011;34336;48.270;16.716;2022-10-16T02:32:57;41.35;;;29.20;;
48554;SDS011;34336;48.270;16.716;2022-10-16T02:35:27;40.78;;;28.17;;
48554;SDS011;34336;48.270;16.716;2022-10-16T02:37:54;38.47;;;27.35;;
48554;SDS011;34336;48.270;16.716;2022-10-16T02:40:23;39.42;;;27.60;;
48554;SDS011;34336;48.270;16.716;2022-10-16T02:42:52;37.90;;;27.60;;
48554;SDS011;34336;48.270;16.716;2022-10-16T02:45:20;35.72;;;27.63;;
48554;SDS011;34336;48.270;16.716;2022-10-16T02:47:47;40.53;;;27.95;;
48554;SDS011;34336;48.270;16.716;2022-10-16T02:50:14;39.25;;;28.02;;
48554;SDS011;34336;48.270;16.716;2022-10-16T02:52:41;36.55;;;26.35;;
48554;SDS011;34336;48.270;16.716;2022-10-16T02:55:08;36.40;;;28.17;;
48554;SDS011;34336;48.270;16.716;2022-10-16T02:57:35;33.67;;;25.20;;
48554;SDS011;34336;48.270;16.716;2022-10-16T03:00:07;33.05;;;24.73;;
48554;SDS011;34336;48.270;16.716;2022-10-16T03:02:35;36.92;;;26.52;;
48554;SDS011;34336;48.270;16.716;2022-10-16T03:05:02;40.25;;;27.02;;
48554;SDS011;34336;48.270;16.716;2022-10-16T03:07:28;40.53;;;27.52;;
48554;SDS011;34336;48.270;16.716;2022-10-16T03:09:55;41.97;;;29.48;;
48554;SDS011;34336;48.270;16.716;2022-10-16T03:12:22;39.47;;;28.38;;
48554;SDS011;34336;48.270;16.716;2022-10-16T03:14:48;40.55;;;27.38;;
48554;SDS011;34336;48.270;16.716;2022-10-16T03:17:15;43.35;;;29.63;;
48554;SDS011;34336;48.270;16.716;2022-10-16T03:19:43;42.67;;;30.38;;
48554;SDS011;34336;48.270;16.716;2022-10-16T03:22:10;49.03;;;32.22;;
48554;SDS011;34336;48.270;16.716;2022-10-16T03:24:37;44.13;;;31.13;;
48554;SDS011;34336;48.270;16.716;2022-10-16T03:27:04;42.35;;;30.60;;
48554;SDS011;34336;48.270;16.716;2022-10-16T03:29:30;45.22;;;32.03;;
48554;SDS011;34336;48.270;16.716;2022-10-16T03:31:58;42.95;;;31.48;;
48554;SDS011;34336;48.270;16.716;2022-10-16T03:34:26;48.00;;;33.55;;
48554;SDS011;34336;48.270;16.716;2022-10-16T03:36:52;49.85;;;35.35;;
48554;SDS011;34336;48.270;16.716;2022-10-16T03:39:19;54.75;;;36.65;;
48554;SDS011;34336;48.270;16.716;2022-10-16T03:41:46;55.45;;;36.75;;
48554;SDS011;34336;48.270;16.716;2022-10-16T03:44:13;53.58;;;34.90;;
48554;SDS011;34336;48.270;16.716;2022-10-16T03:46:40;51.05;;;34.08;;
48554;SDS011;34336;48.270;16.716;2022-10-16T03:49:06;47.78;;;33.05;;
48554;SDS011;34336;48.270;16.716;2022-10-16T03:51:35;46.80;;;31.58;;
48554;SDS011;34336;48.270;16.716;2022-10-16T03:54:02;45.78;;;31.85;;
48554;SDS011;34336;48.270;16.716;2022-10-16T03:56:29;50.10;;;33.20;;
48554;SDS011;34336;48.270;16.716;2022-10-16T03:58:56;51.20;;;33.33;;
48554;SDS011;34336;48.270;16.716;2022-10-16T04:01:23;53.25;;;34.90;;
48554;SDS011;34336;48.270;16.716;2022-10-16T04:03:49;50.13;;;33.10;;
48554;SDS011;34336;48.270;16.716;2022-10-16T04:06:16;52.42;;;34.13;;
48554;SDS011;34336;48.270;16.716;2022-10-16T04:08:43;50.33;;;34.40;;
48554;SDS011;34336;48.270;16.716;2022-10-16T04:11:10;53.15;;;34.45;;
48554;SDS011;34336;48.270;16.716;2022-10-16T04:13:37;49.97;;;33.10;;
48554;SDS011;34336;48.270;16.716;2022-10-16T04:16:03;52.95;;;34.55;;
48554;SDS011;34336;48.270;16.716;2022-10-16T04:18:30;49.10;;;32.10;;
48554;SDS011;34336;48.270;16.716;2022-10-16T04:21:01;45.72;;;32.28;;
48554;SDS011;34336;48.270;16.716;2022-10-16T04:23:31;42.45;;;28.30;;
48554;SDS011;34336;48.270;16.716;2022-10-16T04:25:59;40.22;;;29.23;;
48554;SDS011;34336;48.270;16.716;2022-10-16T04:28:26;43.20;;;30.52;;
48554;SDS011;34336;48.270;16.716;2022-10-16T04:30:53;45.22;;;30.83;;
48554;SDS011;34336;48.270;16.716;2022-10-16T04:33:20;43.08;;;29.42;;
48554;SDS011;34336;48.270;16.716;2022-10-16T04:35:47;40.83;;;28.73;;
48554;SDS011;34336;48.270;16.716;2022-10-16T04:38:14;36.53;;;26.73;;
48554;SDS011;34336;48.270;16.716;2022-10-16T04:40:41;91.53;;;26.05;;
48554;SDS011;34336;48.270;16.716;2022-10-16T04:43:08;30.77;;;22.67;;
48554;SDS011;34336;48.270;16.716;2022-10-16T04:45:35;35.35;;;24.23;;
48554;SDS011;34336;48.270;16.716;2022-10-16T04:48:02;33.35;;;24.45;;
48554;SDS011;34336;48.270;16.716;2022-10-16T04:50:29;34.17;;;25.48;;
48554;SDS011;34336;48.270;16.716;2022-10-16T04:53:05;36.75;;;27.25;;
48554;SDS011;34336;48.270;16.716;2022-10-16T04:55:32;37.83;;;27.58;;
48554;SDS011;34336;48.270;16.716;2022-10-16T04:57:59;43.20;;;30.00;;
48554;SDS011;34336;48.270;16.716;2022-10-16T05:00:25;44.67;;;29.15;;
48554;SDS011;34336;48.270;16.716;2022-10-16T05:02:52;41.47;;;29.77;;
48554;SDS011;34336;48.270;16.716;2022-10-16T05:05:19;45.22;;;31.13;;
48554;SDS011;34336;48.270;16.716;2022-10-16T05:07:46;47.40;;;31.70;;
48554;SDS011;34336;48.270;16.716;2022-10-16T05:10:14;48.35;;;33.40;;
48554;SDS011;34336;48.270;16.716;2022-10-16T05:12:40;44.45;;;31.38;;
48554;SDS011;34336;48.270;16.716;2022-10-16T05:15:07;45.30;;;31.20;;
48554;SDS011;34336;48.270;16.716;2022-10-16T05:17:34;45.25;;;31.35;;
48554;SDS011;34336;48.270;16.716;2022-10-16T05:20:05;43.63;;;30.20;;
48554;SDS011;34336;48.270;16.716;2022-10-16T05:22:32;51.92;;;35.58;;
48554;SDS011;34336;48.270;16.716;2022-10-16T05:24:59;55.63;;;37.88;;
48554;SDS011;34336;48.270;16.716;2022-10-16T05:27:25;63.53;;;39.88;;
48554;SDS011;34336;48.270;16.716;2022-10-16T05:29:52;63.38;;;42.08;;
48554;SDS011;34336;48.270;16.716;2022-10-16T05:32:19;61.65;;;40.42;;
48554;SDS011;34336;48.270;16.716;2022-10-16T05:34:46;65.57;;;42.40;;
48554;SDS011;34336;48.270;16.716;2022-10-16T05:37:13;62.03;;;41.28;;
48554;SDS011;34336;48.270;16.716;2022-10-16T05:39:39;61.45;;;42.17;;
48554;SDS011;34336;48.270;16.716;2022-10-16T05:42:06;59.25;;;40.85;;
48554;SDS011;34336;48.270;16.716;2022-10-16T05:44:33;59.80;;;40.47;;
48554;SDS011;34336;48.270;16.716;2022-10-16T05:47:04;55.15;;;38.67;;
48554;SDS011;34336;48.270;16.716;2022-10-16T05:49:31;70.93;;;49.47;;
48554;SDS011;34336;48.270;16.716;2022-10-16T05:51:57;71.53;;;51.00;;
48554;SDS011;34336;48.270;16.716;2022-10-16T05:54:24;54.50;;;39.28;;
48554;SDS011;34336;48.270;16.716;2022-10-16T05:56:51;51.33;;;35.83;;
48554;SDS011;34336;48.270;16.716;2022-10-16T05:59:18;58.03;;;38.22;;
48554;SDS011;34336;48.270;16.716;2022-10-16T06:01:45;128.90;;;95.00;;
48554;SDS011;34336;48.270;16.716;2022-10-16T06:04:11;82.05;;;57.20;;
48554;SDS011;34336;48.270;16.716;2022-10-16T06:06:38;66.97;;;48.42;;
48554;SDS011;34336;48.270;16.716;2022-10-16T06:09:05;56.45;;;38.55;;
48554;SDS011;34336;48.270;16.716;2022-10-16T06:11:32;47.38;;;35.55;;
48554;SDS011;34336;48.270;16.716;2022-10-16T06:14:00;48.65;;;36.97;;
48554;SDS011;34336;48.270;16.716;2022-10-16T06:16:29;48.72;;;34.80;;
48554;SDS011;34336;48.270;16.716;2022-10-16T06:18:56;45.80;;;32.63;;
48554;SDS011;34336;48.270;16.716;2022-10-16T06:21:23;43.78;;;31.92;;
48554;SDS011;34336;48.270;16.716;2022-10-16T06:23:51;36.25;;;27.95;;
48554;SDS011;34336;48.270;16.716;2022-10-16T06:26:19;38.50;;;28.50;;
48554;SDS011;34336;48.270;16.716;2022-10-16T06:28:47;36.97;;;27.90;;
48554;SDS011;34336;48.270;16.716;2022-10-16T06:31:15;33.67;;;27.33;;
48554;SDS011;34336;48.270;16.716;2022-10-16T06:33:43;32.45;;;24.85;;
48554;SDS011;34336;48.270;16.716;2022-10-16T06:36:11;33.45;;;26.00;;
48554;SDS011;34336;48.270;16.716;2022-10-16T06:38:39;36.83;;;25.65;;
48554;SDS011;34336;48.270;16.716;2022-10-16T06:41:06;32.67;;;25.60;;
48554;SDS011;34336;48.270;16.716;2022-10-16T06:43:34;31.55;;;25.05;;
48554;SDS011;34336;48.270;16.716;2022-10-16T06:46:02;31.48;;;25.33;;
48554;SDS011;34336;48.270;16.716;2022-10-16T06:48:30;30.33;;;25.42;;
48554;SDS011;34336;48.270;16.716;2022-10-16T06:50:58;33.97;;;26.30;;
48554;SDS011;34336;48.270;16.716;2022-10-16T06:53:31;31.15;;;24.38;;
48554;SDS011;34336;48.270;16.716;2022-10-16T06:56:12;45.65;;;34.00;;
48554;SDS011;34336;48.270;16.716;2022-10-16T06:58:41;31.25;;;25.52;;
48554;SDS011;34336;48.270;16.716;2022-10-16T07:01:08;27.88;;;23.92;;
48554;SDS011;34336;48.270;16.716;2022-10-16T07:03:37;29.75;;;24.02;;
48554;SDS011;34336;48.270;16.716;2022-10-16T07:06:05;28.83;;;23.52;;
48554;SDS011;34336;48.270;16.716;2022-10-16T07:08:37;31.20;;;24.48;;
48554;SDS011;34336;48.270;16.716;2022-10-16T07:11:06;32.38;;;24.60;;
48554;SDS011;34336;48.270;16.716;2022-10-16T07:13:35;27.80;;;22.75;;
48554;SDS011;34336;48.270;16.716;2022-10-16T07:16:06;28.25;;;22.95;;
48554;SDS011;34336;48.270;16.716;2022-10-16T07:18:35;28.20;;;22.58;;
48554;SDS011;34336;48.270;16.716;2022-10-16T07:21:04;32.00;;;24.20;;
48554;SDS011;34336;48.270;16.716;2022-10-16T07:23:30;30.77;;;24.52;;
48554;SDS011;34336;48.270;16.716;2022-10-16T07:25:57;29.55;;;24.33;;
48554;SDS011;34336;48.270;16.716;2022-10-16T07:28:24;33.53;;;23.70;;
48554;SDS011;34336;48.270;16.716;2022-10-16T07:30:51;30.08;;;24.35;;
48554;SDS011;34336;48.270;16.716;2022-10-16T07:33:17;32.90;;;25.25;;
48554;SDS011;34336;48.270;16.716;2022-10-16T07:35:51;28.67;;;24.58;;
48554;SDS011;34336;48.270;16.716;2022-10-16T07:38:19;36.95;;;27.08;;
48554;SDS011;34336;48.270;16.716;2022-10-16T07:40:47;32.03;;;26.08;;
48554;SDS011;34336;48.270;16.716;2022-10-16T07:43:15;32.58;;;26.10;;
48554;SDS011;34336;48.270;16.716;2022-10-16T07:45:48;35.30;;;29.40;;
48554;SDS011;34336;48.270;16.716;2022-10-16T07:48:17;62.17;;;49.20;;
48554;SDS011;34336;48.270;16.716;2022-10-16T07:50:44;35.47;;;28.33;;
48554;SDS011;34336;48.270;16.716;2022-10-16T07:53:11;35.53;;;28.92;;
48554;SDS011;34336;48.270;16.716;2022-10-16T07:55:38;34.95;;;28.83;;
48554;SDS011;34336;48.270;16.716;2022-10-16T07:58:05;36.40;;;28.20;;
48554;SDS011;34336;48.270;16.716;2022-10-16T08:00:33;37.50;;;29.67;;
48554;SDS011;34336;48.270;16.716;2022-10-16T08:03:00;38.38;;;30.33;;
48554;SDS011;34336;48.270;16.716;2022-10-16T08:05:27;42.40;;;30.52;;
48554;SDS011;34336;48.270;16.716;2022-10-16T08:07:58;43.08;;;31.25;;
48554;SDS011;34336;48.270;16.716;2022-10-16T08:10:26;36.95;;;30.15;;
48554;SDS011;34336;48.270;16.716;2022-10-16T08:12:53;38.42;;;32.13;;
48554;SDS011;34336;48.270;16.716;2022-10-16T08:15:20;39.15;;;31.55;;
48554;SDS011;34336;48.270;16.716;2022-10-16T08:17:56;40.63;;;31.70;;
48554;SDS011;34336;48.270;16.716;2022-10-16T08:20:25;42.63;;;32.63;;
48554;SDS011;34336;48.270;16.716;2022-10-16T08:22:52;41.25;;;33.83;;
48554;SDS011;34336;48.270;16.716;2022-10-16T08:25:21;43.38;;;33.28;;
48554;SDS011;34336;48.270;16.716;2022-10-16T08:27:48;42.00;;;33.55;;
48554;SDS011;34336;48.270;16.716;2022-10-16T08:30:17;45.92;;;33.80;;
48554;SDS011;34336;48.270;16.716;2022-10-16T08:32:45;42.28;;;33.15;;
48554;SDS011;34336;48.270;16.716;2022-10-16T08:35:12;43.70;;;33.28;;
48554;SDS011;34336;48.270;16.716;2022-10-16T08:37:40;43.47;;;32.92;;
48554;SDS011;34336;48.270;16.716;2022-10-16T08:40:13;43.17;;;32.95;;
48554;SDS011;34336;48.270;16.716;2022-10-16T08:48:17;42.92;;;33.33;;
48554;SDS011;34336;48.270;16.716;2022-10-16T08:50:50;41.97;;;34.35;;
48554;SDS011;34336;48.270;16.716;2022-10-16T08:53:39;42.45;;;32.97;;
48554;SDS011;34336;48.270;16.716;2022-10-16T08:56:11;41.78;;;33.17;;
48554;SDS011;34336;48.270;16.716;2022-10-16T08:58:37;42.58;;;34.35;;
48554;SDS011;34336;48.270;16.716;2022-10-16T09:01:09;44.20;;;34.65;;
48554;SDS011;34336;48.270;16.716;2022-10-16T09:12:10;40.35;;;33.10;;
48554;SDS011;34336;48.270;16.716;2022-10-16T09:15:07;42.75;;;33.20;;
48554;SDS011;34336;48.270;16.716;2022-10-16T09:23:26;42.22;;;33.03;;
48554;SDS011;34336;48.270;16.716;2022-10-16T09:25:54;49.53;;;35.35;;
48554;SDS011;34336;48.270;16.716;2022-10-16T09:28:22;42.97;;;33.28;;
48554;SDS011;34336;48.270;16.716;2022-10-16T09:30:49;43.97;;;34.08;;
48554;SDS011;34336;48.270;16.716;2022-10-16T09:33:20;49.42;;;36.80;;
48554;SDS011;34336;48.270;16.716;2022-10-16T09:35:51;45.42;;;34.60;;
48554;SDS011;34336;48.270;16.716;2022-10-16T09:38:27;46.67;;;34.95;;
48554;SDS011;34336;48.270;16.716;2022-10-16T09:40:57;46.67;;;33.85;;
48554;SDS011;34336;48.270;16.716;2022-10-16T09:46:03;44.45;;;33.85;;
48554;SDS011;34336;48.270;16.716;2022-10-16T09:48:44;47.05;;;36.40;;
48554;SDS011;34336;48.270;16.716;2022-10-16T09:51:36;42.10;;;31.98;;
48554;SDS011;34336;48.270;16.716;2022-10-16T09:54:14;43.22;;;32.92;;
48554;SDS011;34336;48.270;16.716;2022-10-16T09:56:43;41.58;;;32.92;;
48554;SDS011;34336;48.270;16.716;2022-10-16T09:59:13;44.60;;;34.35;;
48554;SDS011;34336;48.270;16.716;2022-10-16T10:04:17;41.22;;;32.53;;
48554;SDS011;34336;48.270;16.716;2022-10-16T10:06:50;45.85;;;32.92;;
48554;SDS011;34336;48.270;16.716;2022-10-16T10:09:25;41.60;;;31.73;;
48554;SDS011;34336;48.270;16.716;2022-10-16T10:12:01;43.25;;;31.75;;
48554;SDS011;34336;48.270;16.716;2022-10-16T10:14:36;40.38;;;32.55;;
48554;SDS011;34336;48.270;16.716;2022-10-16T10:19:40;41.40;;;34.53;;
48554;SDS011;34336;48.270;16.716;2022-10-16T10:22:23;41.65;;;32.92;;
48554;SDS011;34336;48.270;16.716;2022-10-16T10:25:00;43.28;;;32.47;;
48554;SDS011;34336;48.270;16.716;2022-10-16T10:27:47;43.75;;;32.65;;
48554;SDS011;34336;48.270;16.716;2022-10-16T11:00:48;41.20;;;32.20;;
48554;SDS011;34336;48.270;16.716;2022-10-16T11:06:25;39.85;;;33.03;;
48554;SDS011;34336;48.270;16.716;2022-10-16T11:09:00;44.72;;;34.45;;
48554;SDS011;34336;48.270;16.716;2022-10-16T11:16:48;41.35;;;33.08;;
48554;SDS011;34336;48.270;16.716;2022-10-16T11:21:50;40.13;;;32.03;;
48554;SDS011;34336;48.270;16.716;2022-10-16T11:24:47;41.50;;;33.40;;
48554;SDS011;34336;48.270;16.716;2022-10-16T11:30:27;43.25;;;33.13;;
48554;SDS011;34336;48.270;16.716;2022-10-16T11:35:59;43.67;;;33.42;;
48554;SDS011;34336;48.270;16.716;2022-10-16T11:38:43;44.83;;;33.05;;
48554;SDS011;34336;48.270;16.716;2022-10-16T11:41:17;45.88;;;33.75;;
48554;SDS011;34336;48.270;16.716;2022-10-16T11:46:52;46.35;;;34.45;;
48554;SDS011;34336;48.270;16.716;2022-10-16T11:49:48;46.47;;;34.58;;
48554;SDS011;34336;48.270;16.716;2022-10-16T11:52:20;42.63;;;34.30;;
48554;SDS011;34336;48.270;16.716;2022-10-16T11:54:54;44.00;;;33.33;;
48554;SDS011;34336;48.270;16.716;2022-10-16T11:57:32;41.63;;;33.03;;
48554;SDS011;34336;48.270;16.716;2022-10-16T12:00:05;44.90;;;34.85;;
48554;SDS011;34336;48.270;16.716;2022-10-16T12:02:50;43.75;;;33.63;;
48554;SDS011;34336;48.270;16.716;2022-10-16T12:08:35;43.28;;;33.08;;
48554;SDS011;34336;48.270;16.716;2022-10-16T12:11:07;41.45;;;32.40;;
48554;SDS011;34336;48.270;16.716;2022-10-16T12:13:36;42.65;;;34.03;;
48554;SDS011;34336;48.270;16.716;2022-10-16T12:18:34;43.78;;;34.17;;
48554;SDS011;34336;48.270;16.716;2022-10-16T12:21:00;44.88;;;32.17;;
48554;SDS011;34336;48.270;16.716;2022-10-16T12:23:37;43.90;;;33.30;;
48554;SDS011;34336;48.270;16.716;2022-10-16T12:26:13;42.55;;;32.75;;
48554;SDS011;34336;48.270;16.716;2022-10-16T12:28:49;40.53;;;31.95;;
48554;SDS011;34336;48.270;16.716;2022-10-16T12:31:18;43.55;;;33.03;;
48554;SDS011;34336;48.270;16.716;2022-10-16T12:33:56;43.47;;;33.97;;
48554;SDS011;34336;48.270;16.716;2022-10-16T12:36:30;41.97;;;33.95;;
48554;SDS011;34336;48.270;16.716;2022-10-16T12:38:58;43.33;;;32.72;;
48554;SDS011;34336;48.270;16.716;2022-10-16T12:41:31;42.05;;;33.13;;
48554;SDS011;34336;48.270;16.716;2022-10-16T12:44:00;62.90;;;46.40;;
48554;SDS011;34336;48.270;16.716;2022-10-16T12:49:21;42.45;;;32.05;;
48554;SDS011;34336;48.270;16.716;2022-10-16T12:51:54;43.75;;;34.00;;
48554;SDS011;34336;48.270;16.716;2022-10-16T12:54:35;43.17;;;32.30;;
48554;SDS011;34336;48.270;16.716;2022-10-16T12:57:08;44.23;;;33.67;;
48554;SDS011;34336;48.270;16.716;2022-10-16T13:10:26;45.17;;;32.78;;
48554;SDS011;34336;48.270;16.716;2022-10-16T13:13:05;40.88;;;32.15;;
48554;SDS011;34336;48.270;16.716;2022-10-16T13:16:13;45.85;;;32.45;;
48554;SDS011;34336;48.270;16.716;2022-10-16T13:18:58;39.85;;;31.20;;
48554;SDS011;34336;48.270;16.716;2022-10-16T13:32:53;37.30;;;30.98;;
48554;SDS011;34336;48.270;16.716;2022-10-16T13:35:34;39.28;;;30.85;;
48554;SDS011;34336;48.270;16.716;2022-10-16T13:38:03;39.58;;;30.80;;
48554;SDS011;34336;48.270;16.716;2022-10-16T13:40:31;39.42;;;30.33;;
48554;SDS011;34336;48.270;16.716;2022-10-16T13:42:59;37.58;;;30.52;;
48554;SDS011;34336;48.270;16.716;2022-10-16T13:45:26;39.50;;;30.83;;
48554;SDS011;34336;48.270;16.716;2022-10-16T13:48:06;40.30;;;31.15;;
48554;SDS011;34336;48.270;16.716;2022-10-16T13:50:38;34.85;;;29.05;;
48554;SDS011;34336;48.270;16.716;2022-10-16T13:53:14;40.72;;;30.55;;
48554;SDS011;34336;48.270;16.716;2022-10-16T13:55:41;41.50;;;30.98;;
48554;SDS011;34336;48.270;16.716;2022-10-16T13:58:10;38.83;;;30.05;;
48554;SDS011;34336;48.270;16.716;2022-10-16T14:00:39;37.38;;;28.63;;
48554;SDS011;34336;48.270;16.716;2022-10-16T14:03:12;37.47;;;29.95;;
48554;SDS011;34336;48.270;16.716;2022-10-16T14:05:54;35.88;;;28.35;;
48554;SDS011;34336;48.270;16.716;2022-10-16T14:08:24;41.15;;;30.15;;
48554;SDS011;34336;48.270;16.716;2022-10-16T14:10:53;35.58;;;28.85;;
48554;SDS011;34336;48.270;16.716;2022-10-16T14:13:26;38.30;;;29.75;;
48554;SDS011;34336;48.270;16.716;2022-10-16T14:15:56;37.15;;;28.88;;
48554;SDS011;34336;48.270;16.716;2022-10-16T14:18:26;34.75;;;27.75;;
48554;SDS011;34336;48.270;16.716;2022-10-16T14:21:04;40.45;;;29.25;;
48554;SDS011;34336;48.270;16.716;2022-10-16T14:23:36;37.90;;;28.95;;
48554;SDS011;34336;48.270;16.716;2022-10-16T14:26:15;37.78;;;29.45;;
48554;SDS011;34336;48.270;16.716;2022-10-16T14:28:46;35.10;;;28.48;;
48554;SDS011;34336;48.270;16.716;2022-10-16T14:31:53;34.88;;;27.83;;
48554;SDS011;34336;48.270;16.716;2022-10-16T14:34:23;39.65;;;30.05;;
48554;SDS011;34336;48.270;16.716;2022-10-16T14:36:51;40.65;;;29.60;;
48554;SDS011;34336;48.270;16.716;2022-10-16T14:39:19;37.03;;;29.13;;
48554;SDS011;34336;48.270;16.716;2022-10-16T14:41:48;37.75;;;27.92;;
48554;SDS011;34336;48.270;16.716;2022-10-16T14:44:19;34.85;;;28.02;;
48554;SDS011;34336;48.270;16.716;2022-10-16T14:46:49;36.92;;;28.77;;
48554;SDS011;34336;48.270;16.716;2022-10-16T14:49:17;38.05;;;29.30;;
48554;SDS011;34336;48.270;16.716;2022-10-16T14:51:46;37.35;;;28.55;;
48554;SDS011;34336;48.270;16.716;2022-10-16T14:54:15;39.10;;;28.92;;
48554;SDS011;34336;48.270;16.716;2022-10-16T14:56:53;39.65;;;29.35;;
48554;SDS011;34336;48.270;16.716;2022-10-16T14:59:24;36.85;;;28.02;;
48554;SDS011;34336;48.270;16.716;2022-10-16T15:01:51;34.40;;;28.50;;
48554;SDS011;34336;48.270;16.716;2022-10-16T15:04:18;34.58;;;27.55;;
48554;SDS011;34336;48.270;16.716;2022-10-16T15:06:45;35.78;;;28.55;;
48554;SDS011;34336;48.270;16.716;2022-10-16T15:09:12;33.78;;;27.88;;
48554;SDS011;34336;48.270;16.716;2022-10-16T15:11:38;35.97;;;27.95;;
48554;SDS011;34336;48.270;16.716;2022-10-16T15:14:06;36.38;;;27.13;;
48554;SDS011;34336;48.270;16.716;2022-10-16T15:16:34;33.22;;;26.80;;
48554;SDS011;34336;48.270;16.716;2022-10-16T15:19:01;35.72;;;28.08;;
48554;SDS011;34336;48.270;16.716;2022-10-16T15:21:28;35.13;;;27.65;;
48554;SDS011;34336;48.270;16.716;2022-10-16T15:23:57;35.10;;;27.13;;
48554;SDS011;34336;48.270;16.716;2022-10-16T15:26:25;35.97;;;28.33;;
48554;SDS011;34336;48.270;16.716;2022-10-16T15:28:53;35.08;;;27.98;;
48554;SDS011;34336;48.270;16.716;2022-10-16T15:31:20;33.20;;;26.88;;
48554;SDS011;34336;48.270;16.716;2022-10-16T15:33:52;33.58;;;26.80;;
48554;SDS011;34336;48.270;16.716;2022-10-16T15:36:26;35.25;;;27.30;;
48554;SDS011;34336;48.270;16.716;2022-10-16T15:39:12;34.10;;;26.60;;
48554;SDS011;34336;48.270;16.716;2022-10-16T15:41:40;35.00;;;27.30;;
48554;SDS011;34336;48.270;16.716;2022-10-16T15:44:07;34.22;;;27.58;;
48554;SDS011;34336;48.270;16.716;2022-10-16T15:46:34;35.65;;;27.40;;
48554;SDS011;34336;48.270;16.716;2022-10-16T15:49:02;35.45;;;27.40;;
48554;SDS011;34336;48.270;16.716;2022-10-16T15:51:29;33.90;;;27.50;;
48554;SDS011;34336;48.270;16.716;2022-10-16T15:53:59;36.72;;;28.73;;
48554;SDS011;34336;48.270;16.716;2022-10-16T15:56:28;36.83;;;29.13;;
48554;SDS011;34336;48.270;16.716;2022-10-16T15:58:55;37.33;;;28.85;;
48554;SDS011;34336;48.270;16.716;2022-10-16T16:01:23;36.67;;;28.42;;
48554;SDS011;34336;48.270;16.716;2022-10-16T16:03:53;35.97;;;27.98;;
48554;SDS011;34336;48.270;16.716;2022-10-16T16:06:21;36.42;;;27.52;;
48554;SDS011;34336;48.270;16.716;2022-10-16T16:08:50;38.00;;;28.05;;
48554;SDS011;34336;48.270;16.716;2022-10-16T16:11:18;36.25;;;28.60;;
48554;SDS011;34336;48.270;16.716;2022-10-16T16:13:45;38.10;;;27.73;;
48554;SDS011;34336;48.270;16.716;2022-10-16T16:16:13;33.63;;;26.85;;
48554;SDS011;34336;48.270;16.716;2022-10-16T16:18:42;36.40;;;27.50;;
48554;SDS011;34336;48.270;16.716;2022-10-16T16:21:10;33.15;;;26.50;;
48554;SDS011;34336;48.270;16.716;2022-10-16T16:23:38;39.25;;;28.55;;
48554;SDS011;34336;48.270;16.716;2022-10-16T16:26:05;34.95;;;27.42;;
48554;SDS011;34336;48.270;16.716;2022-10-16T16:28:33;33.50;;;27.27;;
48554;SDS011;34336;48.270;16.716;2022-10-16T16:31:01;37.47;;;27.77;;